Time;durP1;ratioP1;P1;durP2;ratioP2;P2;SDS_P1;SDS_P2;PMS_P1;PMS_P2;Temp;Humidity;BMP_temperature;BMP_pressure;BME280_temperature;BME280_humidity;BME280_pressure;Samples;Min_cycle;Max_cycle;Signal;HPM_P1;HPM_P2
2021/12/16 00:07:29;;;;;;;;;33.40;28.60;;;;;9.62;72.76;102906.22;5012128;28;45501;-61
2021/12/16 00:10:23;;;;;;;;;34.80;31.80;;;;;9.65;73.00;102906.97;5005224;28;47853;-56
2021/12/16 00:31:51;;;;;;;;;36.00;27.20;;;;;9.53;71.90;102889.84;4995949;28;45575;-63
2021/12/16 00:34:16;;;;;;;;;32.00;29.20;;;;;9.68;72.76;102910.25;4995804;28;45390;-61
2021/12/16 00:36:43;;;;;;;;;36.50;28.50;;;;;9.70;71.50;102913.72;4994176;28;45316;-63
2021/12/16 00:39:11;;;;;;;;;30.80;27.20;;;;;9.73;71.88;102912.53;4997813;28;45649;-57
2021/12/16 00:41:38;;;;;;;;;33.00;27.80;;;;;9.39;71.22;102853.69;5015187;28;45555;-61
2021/12/16 00:44:13;;;;;;;;;24.00;24.00;;;;;9.74;71.82;102912.41;5015440;28;45540;-58
2021/12/16 00:54:37;;;;;;;;;34.80;30.80;;;;;9.75;71.87;102899.53;5015177;28;45323;-58
2021/12/16 00:57:09;;;;;;;;;35.80;27.60;;;;;9.79;71.90;102906.44;5015206;28;45168;-58
2021/12/16 00:59:38;;;;;;;;;39.40;33.80;;;;;9.71;71.60;102893.50;5015507;28;45350;-63
2021/12/16 01:02:18;;;;;;;;;28.20;24.60;;;;;9.69;71.94;102878.19;5014551;28;45471;-60
2021/12/16 01:34:52;;;;;;;;;31.20;26.00;;;;;9.70;72.31;102882.66;4999642;28;45416;-59
2021/12/16 01:45:50;;;;;;;;;33.80;28.00;;;;;9.60;71.52;102869.00;5021306;28;45271;-59
2021/12/16 01:50:52;;;;;;;;;30.40;27.80;;;;;9.75;72.00;102892.19;5014961;28;45371;-62
2021/12/16 01:56:03;;;;;;;;;37.40;32.80;;;;;9.85;70.76;102910.44;5002345;28;45740;-61
2021/12/16 01:58:32;;;;;;;;;38.60;30.20;;;;;9.83;71.46;102905.09;5017989;28;45418;-60
2021/12/16 02:03:38;;;;;;;;;36.20;31.20;;;;;9.85;70.89;102914.06;5018224;28;45272;-59
2021/12/16 02:06:15;;;;;;;;;34.40;30.20;;;;;9.83;71.90;102907.00;5018452;28;45619;-56
2021/12/16 02:08:40;;;;;;;;;30.00;26.40;;;;;9.42;71.08;102841.56;5018060;28;45433;-58
2021/12/16 02:28:05;;;;;;;;;28.80;28.80;;;;;9.84;71.25;102903.22;5002571;28;45411;-61
2021/12/16 02:35:48;;;;;;;;;37.80;30.40;;;;;9.71;71.14;102878.94;5000265;28;45364;-61
2021/12/16 02:38:16;;;;;;;;;36.40;29.60;;;;;9.85;70.99;102905.81;4984042;28;45680;-61
2021/12/16 02:40:43;;;;;;;;;28.00;24.00;;;;;9.90;70.99;102905.34;5017172;28;45423;-63
2021/12/16 02:48:33;;;;;;;;;19.40;19.40;;;;;9.97;71.06;102922.06;5002296;28;45285;-59
2021/12/16 02:51:09;;;;;;;;;32.80;26.80;;;;;9.97;70.20;102917.44;4999445;28;45436;-61
2021/12/16 02:53:36;;;;;;;;;24.40;21.40;;;;;9.98;69.92;102916.41;5017706;28;45411;-57
2021/12/16 02:56:01;;;;;;;;;36.20;25.40;;;;;9.98;70.00;102916.41;4999591;28;45582;-63
2021/12/16 02:58:27;;;;;;;;;29.25;24.25;;;;;9.97;70.05;102919.34;5017206;28;45796;-63
2021/12/16 03:01:01;;;;;;;;;38.00;32.50;;;;;9.99;71.08;102923.63;4999009;28;45593;-62
2021/12/16 03:03:28;;;;;;;;;27.80;25.40;;;;;10.01;69.67;102918.88;4999580;28;45486;-60
2021/12/16 03:05:54;;;;;;;;;30.60;24.40;;;;;9.92;70.51;102897.84;5017491;28;45451;-62
2021/12/16 03:08:19;;;;;;;;;27.00;20.50;;;;;10.00;70.33;102914.41;4999414;28;45682;-63
2021/12/16 03:13:33;;;;;;;;;39.20;32.80;;;;;9.44;70.64;102814.88;5000508;28;45398;-60
2021/12/16 03:16:11;;;;;;;;;34.40;29.00;;;;;10.02;70.91;102915.09;4999406;28;45553;-57
2021/12/16 03:19:04;;;;;;;;;33.20;27.00;;;;;9.88;71.13;102885.47;5017196;28;45973;-62
2021/12/16 03:21:36;;;;;;;;;37.40;29.00;;;;;10.07;70.48;102917.38;5017072;28;45299;-57
2021/12/16 03:29:38;;;;;;;;;31.20;28.60;;;;;10.03;70.47;102907.72;5001370;28;45669;-64
2021/12/16 03:37:26;;;;;;;;;29.80;23.20;;;;;10.12;70.74;102911.41;5017034;28;45469;-62
2021/12/16 03:39:55;;;;;;;;;24.40;23.80;;;;;9.97;68.95;102891.91;5016433;28;45412;-63
2021/12/16 03:42:33;;;;;;;;;29.60;24.00;;;;;10.12;70.19;102926.00;4998867;28;45525;-59
2021/12/16 03:45:06;;;;;;;;;35.60;32.60;;;;;10.08;70.66;102915.50;4999211;28;45556;-63
2021/12/16 03:47:42;;;;;;;;;39.20;34.60;;;;;10.09;70.97;102919.97;5016917;28;45425;-56
2021/12/16 03:50:19;;;;;;;;;35.60;31.00;;;;;10.11;70.91;102920.66;5016211;28;45811;-63
2021/12/16 03:52:45;;;;;;;;;37.60;33.80;;;;;10.11;70.52;102915.19;4999251;28;45392;-64
2021/12/16 03:55:10;;;;;;;;;44.50;35.25;;;;;10.12;71.14;102922.38;5016527;28;45415;-61
2021/12/16 03:57:36;;;;;;;;;46.00;40.00;;;;;9.80;71.58;102860.66;5016727;28;45297;-62
2021/12/16 04:00:05;;;;;;;;;48.25;36.25;;;;;10.12;71.18;102923.25;5016311;28;45715;-63
2021/12/16 04:02:32;;;;;;;;;48.80;39.40;;;;;10.12;71.80;102923.25;4998014;28;45452;-57
2021/12/16 04:04:58;;;;;;;;;47.60;39.00;;;;;9.78;71.59;102860.84;4998432;28;45575;-60
2021/12/16 04:07:26;;;;;;;;;46.40;39.80;;;;;10.10;72.28;102922.56;5016303;28;45374;-59
2021/12/16 04:09:51;;;;;;;;;48.40;41.20;;;;;10.10;72.04;102925.31;4968705;28;46828;-62
2021/12/16 04:12:21;;;;;;;;;49.75;41.50;;;;;10.09;71.67;102922.72;5013628;28;45323;-62
2021/12/16 04:14:49;;;;;;;;;47.60;38.60;;;;;10.09;72.43;102922.72;5014590;28;45464;-57
2021/12/16 04:17:15;;;;;;;;;45.80;39.40;;;;;10.06;72.17;102917.53;5015347;28;45434;-60
2021/12/16 04:19:40;;;;;;;;;49.75;40.75;;;;;10.10;72.37;102927.19;4998122;28;47956;-56
2021/12/16 04:22:10;;;;;;;;;50.75;41.75;;;;;9.92;72.71;102900.56;5015820;28;45373;-60
2021/12/16 04:24:36;;;;;;;;;50.00;40.00;;;;;9.99;72.07;102917.28;5015979;28;45376;-63
2021/12/16 04:27:02;;;;;;;;;49.00;41.40;;;;;10.08;72.01;102921.84;4998311;28;45395;-63
2021/12/16 04:29:27;;;;;;;;;51.75;41.75;;;;;10.10;72.38;102922.56;5015795;28;45417;-57
2021/12/16 04:31:53;;;;;;;;;47.50;39.75;;;;;10.08;72.00;102921.84;4997911;28;45931;-59
2021/12/16 04:34:19;;;;;;;;;49.80;37.00;;;;;10.09;71.99;102928.19;4998262;28;45503;-61
2021/12/16 04:36:44;;;;;;;;;53.00;39.75;;;;;10.07;71.72;102931.09;4997870;28;45618;-56
2021/12/16 04:39:14;;;;;;;;;43.50;39.00;;;;;10.10;71.79;102940.91;5015754;28;46882;-56
2021/12/16 04:41:41;;;;;;;;;45.00;38.00;;;;;9.96;72.04;102912.97;5015226;28;45364;-63
2021/12/16 04:44:13;;;;;;;;;45.40;37.20;;;;;10.05;71.67;102933.13;4997630;28;45404;-61
2021/12/16 04:46:39;;;;;;;;;40.40;35.60;;;;;10.08;71.44;102934.72;5015687;28;45329;-57
2021/12/16 04:49:05;;;;;;;;;40.25;37.00;;;;;10.06;71.79;102939.47;4997594;28;46529;-58
2021/12/16 04:51:32;;;;;;;;;41.00;35.80;;;;;10.09;72.21;102941.91;5015089;28;45295;-60
2021/12/16 04:53:58;;;;;;;;;37.60;34.80;;;;;10.11;71.05;102946.25;5015609;28;45738;-61
2021/12/16 04:56:23;;;;;;;;;40.75;35.00;;;;;9.91;71.53;102912.56;4997741;28;45392;-61
2021/12/16 04:58:50;;;;;;;;;38.75;35.00;;;;;9.90;71.65;102914.47;4997222;28;48453;-63
2021/12/16 05:01:15;;;;;;;;;44.60;35.20;;;;;10.12;71.20;102950.69;4997547;28;45501;-59
2021/12/16 05:03:41;;;;;;;;;40.00;35.00;;;;;10.14;71.55;102947.81;4997666;28;45379;-59
2021/12/16 05:06:07;;;;;;;;;36.25;33.50;;;;;9.76;71.70;102887.53;5015593;28;45481;-60
2021/12/16 05:08:32;;;;;;;;;40.00;33.75;;;;;10.11;71.32;102943.50;4997483;28;47554;-59
2021/12/16 05:11:02;;;;;;;;;36.25;35.00;;;;;10.14;71.20;102948.66;4997485;28;45245;-56
2021/12/16 05:13:28;;;;;;;;;37.20;33.00;;;;;10.14;71.12;102945.91;5015355;28;45412;-62
2021/12/16 05:15:54;;;;;;;;;33.80;29.20;;;;;10.19;71.95;102947.34;4997300;28;45346;-62
2021/12/16 05:18:29;;;;;;;;;32.80;28.20;;;;;10.20;71.41;102951.81;4981055;28;48383;-59
2021/12/16 05:20:55;;;;;;;;;42.40;33.00;;;;;10.19;71.68;102950.94;5015034;28;45418;-62
2021/12/16 05:28:37;;;;;;;;;31.00;30.00;;;;;10.03;70.97;102910.47;4997152;28;46010;-56
2021/12/16 05:31:03;;;;;;;;;29.50;29.50;;;;;10.25;71.00;102947.56;5014895;28;45741;-59
2021/12/16 05:33:29;;;;;;;;;40.40;34.60;;;;;10.27;71.86;102950.16;5015567;28;45326;-60
2021/12/16 05:35:54;;;;;;;;;35.50;32.00;;;;;10.28;71.59;102954.63;5015086;28;45663;-58
2021/12/16 05:38:20;;;;;;;;;40.25;33.50;;;;;10.30;71.66;102958.94;5014852;28;45421;-58
2021/12/16 05:40:46;;;;;;;;;33.75;30.50;;;;;10.31;71.63;102960.66;4997018;28;45344;-62
2021/12/16 05:43:17;;;;;;;;;33.50;30.50;;;;;10.15;71.25;102936.66;5014779;28;45347;-62
2021/12/16 05:45:43;;;;;;;;;30.00;28.40;;;;;10.32;70.58;102964.28;5013945;28;45893;-57
2021/12/16 05:48:09;;;;;;;;;31.00;30.50;;;;;10.29;70.65;102965.47;5014613;28;45366;-58
2021/12/16 05:50:38;;;;;;;;;31.80;29.80;;;;;10.33;70.72;102968.75;4997126;28;45394;-61
2021/12/16 05:53:07;;;;;;;;;25.40;24.40;;;;;10.28;69.81;102955.50;5014506;28;45218;-60
2021/12/16 05:55:32;;;;;;;;;28.00;24.60;;;;;10.34;70.59;102977.88;4997695;28;45375;-62
2021/12/16 05:58:00;;;;;;;;;30.75;27.00;;;;;10.37;70.52;102975.69;5014505;28;46426;-62
2021/12/16 06:00:29;;;;;;;;;27.60;24.40;;;;;10.34;70.29;102975.97;4993108;28;45628;-56
2021/12/16 06:02:54;;;;;;;;;38.00;30.00;;;;;10.12;70.23;102936.09;4994575;28;45367;-58
2021/12/16 06:05:20;;;;;;;;;28.75;25.25;;;;;10.25;70.52;102957.69;4994856;28;45540;-59
2021/12/16 06:07:45;;;;;;;;;25.75;24.00;;;;;10.10;69.46;102933.53;4993060;28;47595;-62
2021/12/16 06:10:29;;;;;;;;;29.50;27.75;;;;;10.40;70.40;102978.09;5009307;28;45348;-60
2021/12/16 06:12:55;;;;;;;;;35.60;27.60;;;;;10.21;69.68;102948.91;4993683;28;45399;-63
2021/12/16 06:15:37;;;;;;;;;37.50;33.50;;;;;10.41;70.56;102993.53;4994463;28;45172;-62
2021/12/16 06:22:29;;;;;;;;;34.20;31.20;;;;;10.42;70.16;102997.16;5007277;28;45445;-62
2021/12/16 06:26:40;;;;;;;;;34.80;30.20;;;;;10.38;69.66;102988.38;4993565;28;45512;-58
2021/12/16 06:29:08;;;;;;;;;27.80;25.40;;;;;10.35;69.96;102987.81;4992487;28;45861;-64
2021/12/16 06:31:34;;;;;;;;;35.00;28.60;;;;;10.28;69.90;102976.59;4994187;28;45318;-60
2021/12/16 06:33:59;;;;;;;;;30.50;29.00;;;;;10.36;70.15;102981.31;4994566;28;45453;-59
2021/12/16 06:36:25;;;;;;;;;27.75;25.00;;;;;10.33;70.27;102973.38;4994311;28;45642;-60
2021/12/16 06:38:51;;;;;;;;;35.25;29.75;;;;;10.31;70.35;102976.28;4992479;28;45482;-58
2021/12/16 06:41:17;;;;;;;;;32.80;29.00;;;;;10.22;70.43;102960.75;5012139;28;45382;-62
2021/12/16 06:43:44;;;;;;;;;34.60;29.80;;;;;10.32;70.79;102969.78;4996091;28;45323;-63
2021/12/16 06:46:13;;;;;;;;;34.80;29.40;;;;;10.38;70.74;102985.63;4996564;28;45566;-63
2021/12/16 06:48:42;;;;;;;;;35.00;32.60;;;;;10.40;70.39;102994.56;4997232;28;47128;-60
2021/12/16 06:51:12;;;;;;;;;34.20;29.20;;;;;10.39;70.10;102990.09;4997443;28;45288;-59
2021/12/16 06:54:02;;;;;;;;;35.20;30.00;;;;;10.33;70.83;102979.75;4997055;28;45407;-62
2021/12/16 06:56:35;;;;;;;;;34.20;29.20;;;;;10.41;70.84;103000.94;4997544;28;45417;-60
2021/12/16 06:59:08;;;;;;;;;29.00;27.00;;;;;10.40;70.65;102997.31;4994854;28;46240;-53
2021/12/16 07:01:41;;;;;;;;;33.80;27.60;;;;;10.43;70.72;103001.66;4995493;28;45548;-64
2021/12/16 07:04:10;;;;;;;;;34.60;31.80;;;;;10.37;70.85;103000.38;4996163;28;45556;-59
2021/12/16 07:06:35;;;;;;;;;33.00;28.00;;;;;10.39;70.30;103003.81;4996071;28;45533;-62
2021/12/16 07:09:05;;;;;;;;;33.00;26.50;;;;;10.30;70.58;102991.03;4995806;28;46855;-62
2021/12/16 07:11:36;;;;;;;;;29.80;24.60;;;;;10.39;70.09;103017.53;4995964;28;45315;-59
2021/12/16 07:14:04;;;;;;;;;30.20;29.60;;;;;10.40;70.52;103010.16;4974324;28;45667;-59
2021/12/16 07:16:30;;;;;;;;;38.80;31.20;;;;;10.43;70.92;103012.63;4997283;28;45616;-62
2021/12/16 07:18:56;;;;;;;;;38.00;34.25;;;;;10.42;70.83;103006.28;4995621;28;46950;-63
2021/12/16 07:21:23;;;;;;;;;43.25;35.00;;;;;10.43;70.59;103013.53;4997028;28;45339;-63
2021/12/16 07:23:48;;;;;;;;;32.40;32.20;;;;;10.45;70.49;103013.34;4996820;28;45399;-58
2021/12/16 07:26:14;;;;;;;;;30.50;29.75;;;;;10.45;69.96;103013.34;4997417;28;45595;-59
2021/12/16 07:28:39;;;;;;;;;30.00;29.50;;;;;10.29;70.14;102984.69;4996543;28;45438;-62
2021/12/16 07:31:05;;;;;;;;;36.75;31.50;;;;;10.41;70.03;103000.94;4995640;28;45416;-59
2021/12/16 07:33:30;;;;;;;;;27.00;26.75;;;;;10.47;70.47;103015.94;4995271;28;45354;-56
2021/12/16 07:35:56;;;;;;;;;31.50;30.00;;;;;10.47;70.33;103013.19;4997159;28;45581;-60
2021/12/16 07:38:22;;;;;;;;;38.40;33.80;;;;;10.49;70.16;103023.00;4995404;28;45348;-62
2021/12/16 07:40:49;;;;;;;;;27.00;26.00;;;;;10.46;70.52;103015.06;4991839;28;45899;-62
2021/12/16 07:43:29;;;;;;;;;30.00;28.40;;;;;10.17;70.89;102964.81;4977660;28;45303;-62
2021/12/16 07:45:55;;;;;;;;;25.80;25.20;;;;;10.48;70.78;103012.16;4977184;28;45419;-63
2021/12/16 07:48:22;;;;;;;;;34.60;29.60;;;;;10.50;71.08;103018.34;4976800;28;47009;-63
2021/12/16 07:50:50;;;;;;;;;27.00;24.80;;;;;10.51;69.90;103025.59;4976104;28;45467;-60
2021/12/16 07:53:15;;;;;;;;;29.60;28.60;;;;;10.48;69.80;103021.28;4976522;28;45405;-60
2021/12/16 07:55:42;;;;;;;;;43.25;36.00;;;;;10.22;70.86;102985.44;4977123;28;45647;-60
2021/12/16 07:58:08;;;;;;;;;25.60;23.40;;;;;10.49;70.32;103023.00;4991620;28;46459;-57
2021/12/16 08:00:34;;;;;;;;;32.00;28.50;;;;;10.47;69.98;103018.69;4983721;28;45535;-60
2021/12/16 08:03:04;;;;;;;;;33.80;30.20;;;;;10.52;70.84;103030.06;4978411;28;45451;-63
2021/12/16 08:05:32;;;;;;;;;34.00;26.60;;;;;10.44;70.57;103014.38;4996687;28;45380;-59
2021/12/16 08:07:57;;;;;;;;;36.80;30.00;;;;;10.53;69.85;103034.53;4996062;28;46587;-59
2021/12/16 08:10:23;;;;;;;;;27.25;26.00;;;;;10.53;70.20;103040.03;4996355;28;45441;-61
2021/12/16 08:12:49;;;;;;;;;30.00;28.00;;;;;10.52;70.27;103039.16;4996269;28;45367;-60
2021/12/16 08:15:16;;;;;;;;;35.25;31.25;;;;;10.56;69.81;103039.72;4978602;28;45546;-58
2021/12/16 08:17:42;;;;;;;;;36.60;30.60;;;;;10.42;69.71;103016.38;4994725;28;45674;-62
2021/12/16 08:20:09;;;;;;;;;31.60;27.40;;;;;10.58;69.63;103045.94;4995889;28;45742;-61
2021/12/16 08:22:35;;;;;;;;;34.20;30.20;;;;;10.57;70.57;103052.44;4996522;28;45377;-59
2021/12/16 08:25:00;;;;;;;;;33.00;30.00;;;;;10.53;70.01;103040.91;4995985;28;45572;-59
2021/12/16 08:27:26;;;;;;;;;30.75;26.75;;;;;10.54;69.75;103052.72;4995783;28;45493;-58
2021/12/16 08:29:51;;;;;;;;;30.50;29.75;;;;;10.54;70.32;103050.88;4995548;28;46117;-60
2021/12/16 08:32:17;;;;;;;;;32.00;26.75;;;;;10.55;70.30;103044.34;4978450;28;45469;-59
2021/12/16 08:34:45;;;;;;;;;33.00;28.00;;;;;10.57;69.87;103046.94;4996101;28;45445;-58
2021/12/16 08:37:13;;;;;;;;;29.40;25.00;;;;;10.51;70.11;103037.44;4978345;28;46579;-62
2021/12/16 08:39:39;;;;;;;;;33.20;28.80;;;;;10.58;70.26;103040.44;4994290;28;45349;-63
2021/12/16 08:42:06;;;;;;;;;32.50;29.00;;;;;10.66;69.69;103054.25;4991322;28;45400;-57
2021/12/16 08:44:32;;;;;;;;;28.20;25.00;;;;;10.66;69.77;103051.50;4994357;28;45511;-59
2021/12/16 08:47:00;;;;;;;;;32.00;28.50;;;;;10.68;70.06;103054.94;4978253;28;46530;-60
2021/12/16 08:49:26;;;;;;;;;31.00;24.40;;;;;10.66;69.82;103054.25;4995539;28;45436;-60
2021/12/16 08:51:55;;;;;;;;;29.40;26.40;;;;;10.50;69.26;103043.06;4978029;28;45390;-63
2021/12/16 08:54:22;;;;;;;;;27.20;24.20;;;;;10.67;69.43;103064.19;4995621;28;45294;-62
2021/12/16 08:56:48;;;;;;;;;27.60;25.20;;;;;10.72;69.73;103066.47;4995314;28;46202;-58
2021/12/16 08:59:13;;;;;;;;;28.80;27.60;;;;;10.74;69.22;103071.81;4993973;28;45779;-61
2021/12/16 09:01:44;;;;;;;;;28.25;26.25;;;;;10.58;69.44;103043.19;4995462;28;45461;-58
2021/12/16 09:04:10;;;;;;;;;29.00;26.00;;;;;10.78;69.13;103065.00;4995592;28;45456;-63
2021/12/16 09:06:35;;;;;;;;;29.25;24.25;;;;;10.81;69.48;103070.19;4985847;28;45420;-62
2021/12/16 09:09:01;;;;;;;;;27.50;26.00;;;;;10.78;68.83;103065.00;5004569;28;45367;-60
2021/12/16 09:11:28;;;;;;;;;29.50;27.25;;;;;10.70;68.76;103050.19;5015387;28;45485;-54
2021/12/16 09:13:55;;;;;;;;;30.60;24.00;;;;;10.86;68.29;103073.31;5015775;28;45458;-57
2021/12/16 09:16:22;;;;;;;;;27.80;26.60;;;;;10.88;68.86;103068.53;4997152;28;48607;-56
2021/12/16 09:18:47;;;;;;;;;28.40;23.80;;;;;10.91;68.81;103073.72;5014983;28;45353;-62
2021/12/16 09:21:16;;;;;;;;;32.50;27.75;;;;;10.85;68.16;103058.72;4997738;28;45396;-62
2021/12/16 09:23:43;;;;;;;;;32.00;28.60;;;;;10.81;68.36;103056.44;4997188;28;45344;-63
2021/12/16 09:26:09;;;;;;;;;27.00;21.40;;;;;10.93;67.76;103076.28;5014902;28;45461;-55
2021/12/16 09:28:34;;;;;;;;;26.25;24.75;;;;;11.04;67.25;103083.47;4997222;28;45802;-56
2021/12/16 09:31:01;;;;;;;;;26.50;24.25;;;;;11.09;67.41;103087.44;4997328;28;45479;-58
2021/12/16 09:33:27;;;;;;;;;27.20;26.00;;;;;11.14;67.73;103089.72;5014873;28;45492;-57
2021/12/16 09:35:56;;;;;;;;;26.20;24.80;;;;;10.97;67.20;103055.72;5014821;28;45717;-56
2021/12/16 09:38:22;;;;;;;;;29.20;24.20;;;;;11.11;66.24;103084.56;5014817;28;45340;-59
2021/12/16 09:40:52;;;;;;;;;22.80;19.40;;;;;11.16;66.30;103089.56;4996840;28;45503;-62
2021/12/16 09:43:23;;;;;;;;;21.80;20.00;;;;;11.15;65.82;103096.09;4982028;28;45360;-55
2021/12/16 09:45:50;;;;;;;;;26.20;23.60;;;;;11.21;66.32;103101.81;5014430;28;45842;-58
2021/12/16 09:48:16;;;;;;;;;24.80;21.00;;;;;11.25;66.13;103108.72;5014875;28;45379;-62
2021/12/16 09:50:41;;;;;;;;;23.60;20.40;;;;;11.28;65.77;103110.28;4996398;28;45368;-63
2021/12/16 09:53:07;;;;;;;;;22.50;19.00;;;;;11.29;66.09;103101.03;4997266;28;45358;-61
2021/12/16 09:55:34;;;;;;;;;26.20;26.20;;;;;11.33;66.25;103113.44;4996514;28;47352;-56
2021/12/16 09:58:00;;;;;;;;;25.00;23.00;;;;;11.34;65.95;103114.28;4997004;28;45359;-56
2021/12/16 10:00:27;;;;;;;;;26.75;25.75;;;;;11.10;65.46;103078.19;4996748;28;45314;-59
2021/12/16 10:02:56;;;;;;;;;29.60;25.00;;;;;11.35;66.13;103116.00;5014847;28;45520;-60
2021/12/16 10:05:22;;;;;;;;;27.00;24.40;;;;;11.36;65.64;103109.47;4980704;28;47375;-63
2021/12/16 10:07:48;;;;;;;;;27.25;25.25;;;;;11.35;65.59;103118.75;4980309;28;45319;-62
2021/12/16 10:10:19;;;;;;;;;32.75;26.25;;;;;11.36;65.24;103117.72;5006693;28;46474;-59
2021/12/16 10:12:48;;;;;;;;;30.00;27.40;;;;;11.35;65.76;103114.13;4974400;28;45527;-61
2021/12/16 10:18:12;;;;;;;;;27.20;23.40;;;;;11.30;66.01;103111.00;5017986;28;45272;-61
2021/12/16 10:20:45;;;;;;;;;32.60;25.60;;;;;11.35;65.69;103110.50;5017638;28;45401;-56
2021/12/16 10:23:14;;;;;;;;;27.40;24.60;;;;;11.43;66.40;103124.34;5018063;28;45330;-62
2021/12/16 10:25:41;;;;;;;;;26.00;23.20;;;;;11.54;65.93;103114.97;4998794;28;45917;-51
2021/12/16 10:28:13;;;;;;;;;25.80;25.20;;;;;11.50;65.97;103092.44;5017424;28;45830;-53
2021/12/16 10:30:52;;;;;;;;;27.40;25.40;;;;;11.70;65.89;103125.22;4999711;28;45356;-60
2021/12/16 10:33:43;;;;;;;;;30.80;29.20;;;;;11.73;65.95;103124.03;5017713;28;45334;-59
2021/12/16 10:36:25;;;;;;;;;32.20;29.60;;;;;11.72;64.89;103116.78;5017068;28;45422;-60
2021/12/16 10:38:56;;;;;;;;;27.20;25.80;;;;;11.60;66.47;103081.31;5014389;28;45380;-61
2021/12/16 10:41:24;;;;;;;;;29.40;26.20;;;;;11.78;65.16;103119.78;5017433;28;46022;-58
2021/12/16 10:44:00;;;;;;;;;26.60;26.60;;;;;11.60;65.09;103092.31;4999157;28;45341;-57
2021/12/16 10:46:28;;;;;;;;;26.00;25.00;;;;;11.63;63.82;103094.75;5017359;28;46584;-59
2021/12/16 10:48:59;;;;;;;;;26.60;23.20;;;;;11.72;63.90;103120.41;5014766;28;45411;-59
2021/12/16 10:51:30;;;;;;;;;25.40;22.00;;;;;11.71;64.62;103115.94;4999908;28;45320;-59
2021/12/16 10:54:03;;;;;;;;;26.00;23.40;;;;;11.71;64.70;103121.44;4991668;28;45540;-60
2021/12/16 10:56:33;;;;;;;;;27.80;22.00;;;;;11.72;64.73;103109.41;5000952;28;46817;-59
2021/12/16 10:59:15;;;;;;;;;28.40;27.00;;;;;11.66;64.18;103104.56;5013631;28;45398;-63
2021/12/16 11:01:56;;;;;;;;;34.80;26.00;;;;;11.56;64.55;103087.28;5009676;28;45412;-61
2021/12/16 11:04:44;;;;;;;;;28.40;26.40;;;;;11.70;64.56;103107.84;4985544;28;45863;-59
2021/12/16 11:07:17;;;;;;;;;26.40;23.60;;;;;11.75;64.37;103116.50;4979839;28;46595;-64
2021/12/16 11:09:54;;;;;;;;;30.20;27.80;;;;;11.74;64.31;103115.59;4978250;28;45523;-60
2021/12/16 11:12:24;;;;;;;;;24.00;21.40;;;;;11.74;64.17;103107.34;5010064;28;45955;-58
2021/12/16 11:15:08;;;;;;;;;29.20;26.20;;;;;11.75;64.69;103117.34;5011172;28;45662;-53
2021/12/16 11:17:58;;;;;;;;;30.20;23.20;;;;;11.79;64.28;103115.13;5009517;28;45534;-52
2021/12/16 11:21:00;;;;;;;;;33.40;27.60;;;;;11.80;63.97;103114.97;4982558;28;46350;-51
2021/12/16 11:23:38;;;;;;;;;24.40;21.40;;;;;11.82;64.29;103111.19;5003449;28;45573;-62
2021/12/16 11:26:06;;;;;;;;;28.20;23.20;;;;;11.59;63.00;103089.72;5015917;28;45557;-62
2021/12/16 11:28:35;;;;;;;;;28.00;25.40;;;;;11.73;63.42;103108.38;5011756;28;45560;-60
2021/12/16 11:31:12;;;;;;;;;26.20;24.20;;;;;11.76;63.02;103108.09;5012024;28;45504;-58
2021/12/16 11:34:00;;;;;;;;;29.60;28.20;;;;;11.78;63.87;103114.28;5011937;28;46042;-59
2021/12/16 11:36:57;;;;;;;;;30.00;27.20;;;;;11.68;64.18;103087.91;4980605;28;45642;-59
2021/12/16 11:39:24;;;;;;;;;29.00;26.20;;;;;11.76;64.03;103083.31;4984512;28;45801;-62
2021/12/16 11:41:54;;;;;;;;;28.40;23.80;;;;;11.75;62.66;103084.31;5011538;28;45729;-57
2021/12/16 11:44:20;;;;;;;;;27.40;25.60;;;;;11.87;64.02;103104.19;5012089;28;45422;-56
2021/12/16 11:47:00;;;;;;;;;28.40;27.00;;;;;11.96;63.60;103105.09;5012575;28;45927;-61
2021/12/16 11:49:32;;;;;;;;;34.20;28.80;;;;;11.98;63.83;103102.16;4975959;28;45736;-61
2021/12/16 11:52:13;;;;;;;;;30.00;23.20;;;;;11.99;63.12;103102.00;5012530;28;45501;-62
2021/12/16 11:55:05;;;;;;;;;29.40;25.40;;;;;11.78;63.46;103073.00;5012499;28;45511;-62
2021/12/16 11:57:37;;;;;;;;;26.20;22.80;;;;;11.93;63.53;103097.16;5012392;28;45421;-58
2021/12/16 12:00:17;;;;;;;;;28.20;24.40;;;;;11.85;63.50;103084.19;5012180;28;46591;-59
2021/12/16 12:02:53;;;;;;;;;28.40;26.00;;;;;11.92;62.83;103101.78;4973071;28;45520;-63
2021/12/16 12:05:28;;;;;;;;;29.80;24.40;;;;;11.28;62.71;102994.84;4991244;28;45486;-63
2021/12/16 12:08:08;;;;;;;;;26.40;21.80;;;;;11.72;62.82;103068.16;4992618;28;45388;-56
2021/12/16 12:10:38;;;;;;;;;28.20;24.00;;;;;11.95;63.61;103100.59;4967694;28;45767;-61
2021/12/16 12:13:07;;;;;;;;;33.80;30.40;;;;;11.90;63.16;103092.00;5011042;28;45499;-59
2021/12/16 12:15:50;;;;;;;;;33.80;28.20;;;;;11.94;63.56;103093.38;5011883;28;45770;-62
2021/12/16 12:18:31;;;;;;;;;34.20;30.20;;;;;11.91;63.72;103089.06;4996991;28;45510;-62
2021/12/16 12:21:24;;;;;;;;;26.20;25.40;;;;;11.82;63.34;103069.91;5010818;28;45474;-63
2021/12/16 12:23:53;;;;;;;;;28.60;25.80;;;;;11.97;63.58;103086.69;4991395;28;45449;-58
2021/12/16 12:26:20;;;;;;;;;29.60;27.40;;;;;11.85;62.71;103077.84;5009627;28;45544;-60
2021/12/16 12:28:50;;;;;;;;;33.40;31.00;;;;;11.91;63.29;103077.22;4993551;28;46021;-61
2021/12/16 12:31:17;;;;;;;;;32.20;26.40;;;;;11.90;63.21;103086.50;5011385;28;45585;-64
2021/12/16 12:33:43;;;;;;;;;33.40;31.80;;;;;11.82;63.49;103069.91;4993306;28;45890;-62
2021/12/16 12:36:09;;;;;;;;;29.00;28.00;;;;;11.90;63.79;103078.25;4993771;28;45629;-58
2021/12/16 12:38:36;;;;;;;;;26.00;23.00;;;;;11.91;63.75;103080.81;5009786;28;45544;-61
2021/12/16 12:41:02;;;;;;;;;33.40;29.20;;;;;11.92;63.11;103087.19;5011057;28;46338;-61
2021/12/16 12:43:29;;;;;;;;;28.60;22.80;;;;;11.90;62.93;103086.50;4993777;28;45825;-62
2021/12/16 12:45:55;;;;;;;;;23.60;22.80;;;;;11.65;63.42;103036.81;4993999;28;45412;-64
2021/12/16 12:48:23;;;;;;;;;29.00;26.75;;;;;11.86;63.06;103063.94;5011270;28;45553;-64
2021/12/16 12:50:53;;;;;;;;;31.20;28.20;;;;;11.96;63.34;103069.31;4976386;28;46349;-60
2021/12/16 12:53:38;;;;;;;;;31.80;26.20;;;;;11.94;63.42;103065.84;4977281;28;45386;-56
2021/12/16 12:56:27;;;;;;;;;51.80;42.60;;;;;12.00;62.96;103067.09;5012878;28;45437;-57
2021/12/16 12:59:01;;;;;;;;;33.40;27.00;;;;;12.03;62.05;103069.50;4979297;28;45667;-63
2021/12/16 13:01:59;;;;;;;;;32.40;26.80;;;;;12.07;62.46;103071.81;5010722;28;46316;-61
2021/12/16 13:04:31;;;;;;;;;32.60;30.40;;;;;12.09;62.34;103065.25;4963739;28;45444;-65
2021/12/16 13:07:09;;;;;;;;;30.60;25.20;;;;;11.95;62.32;103041.97;4995265;28;45408;-60
2021/12/16 13:09:42;;;;;;;;;31.60;27.20;;;;;12.00;61.70;103059.69;4963054;28;45910;-63
2021/12/16 13:12:49;;;;;;;;;26.40;26.00;;;;;12.04;62.32;103066.63;4933863;28;46915;-59
2021/12/16 13:15:31;;;;;;;;;35.00;24.20;;;;;11.88;62.10;103044.50;5007923;28;45566;-59
2021/12/16 13:24:07;;;;;;;;;27.60;25.20;;;;;12.04;61.92;103052.00;5008192;28;45968;-63
2021/12/16 13:26:46;;;;;;;;;21.80;21.00;;;;;12.00;62.14;103040.44;5004088;28;45554;-62
2021/12/16 13:29:43;;;;;;;;;30.20;26.40;;;;;12.08;62.27;103050.66;4992827;28;45970;-61
2021/12/16 13:32:21;;;;;;;;;27.60;25.00;;;;;11.48;62.06;102948.69;5006903;28;45795;-59
2021/12/16 13:35:00;;;;;;;;;25.80;19.40;;;;;12.07;62.70;103047.03;4990741;28;45618;-59
2021/12/16 13:37:34;;;;;;;;;24.20;23.00;;;;;11.85;62.08;103007.16;5009803;28;45822;-61
2021/12/16 13:40:05;;;;;;;;;25.40;23.20;;;;;12.07;62.09;103038.75;5009999;28;45858;-60
2021/12/16 13:42:57;;;;;;;;;30.40;28.60;;;;;12.10;62.53;103042.25;4987243;28;45881;-58
2021/12/16 13:45:35;;;;;;;;;33.80;26.00;;;;;12.07;62.37;103033.25;4994074;28;45416;-65